createdAt,value
2023-02-02T00:02:52.981Z,61.58
2023-02-02T00:05:54.595Z,61.65
2023-02-02T00:08:58.590Z,61.56
2023-02-02T00:12:01.132Z,61.51
2023-02-02T00:15:02.700Z,61.43
2023-02-02T00:18:04.329Z,61.53
2023-02-02T00:21:05.880Z,61.48
2023-02-02T00:24:09.322Z,61.57
2023-02-02T00:27:10.918Z,61.45
2023-02-02T00:30:13.175Z,61.41
2023-02-02T00:33:14.672Z,61.38
2023-02-02T00:36:17.423Z,61.49
2023-02-02T00:39:26.131Z,61.60
2023-02-02T00:42:27.749Z,61.53
2023-02-02T00:45:30.087Z,61.55
2023-02-02T00:48:31.996Z,61.61
2023-02-02T00:51:33.793Z,61.57
2023-02-02T00:54:35.336Z,61.55
2023-02-02T00:57:36.966Z,61.36
2023-02-02T01:00:38.539Z,61.54
2023-02-02T01:03:40.086Z,61.68
2023-02-02T01:06:42.192Z,61.37
2023-02-02T01:09:43.873Z,61.43
2023-02-02T01:12:45.710Z,61.57
2023-02-02T01:15:47.260Z,61.58
2023-02-02T01:18:49.512Z,61.62
2023-02-02T01:21:51.302Z,61.46
2023-02-02T01:24:52.864Z,61.63
2023-02-02T01:27:54.475Z,61.39
2023-02-02T01:30:56.729Z,61.74
2023-02-02T01:33:58.312Z,61.61
2023-02-02T01:37:00.093Z,61.59
2023-02-02T01:40:01.783Z,61.44
2023-02-02T01:43:03.322Z,61.47
2023-02-02T01:46:04.979Z,61.51
2023-02-02T01:49:09.263Z,61.56
2023-02-02T01:52:12.551Z,61.64
2023-02-02T01:55:17.343Z,61.47
2023-02-02T01:58:33.520Z,61.40
2023-02-02T02:01:35.033Z,61.55
2023-02-02T02:04:37.070Z,61.70
2023-02-02T02:07:43.646Z,61.66
2023-02-02T02:10:45.567Z,61.76
2023-02-02T02:14:06.010Z,61.65
2023-02-02T02:17:19.611Z,61.50
2023-02-02T02:21:17.098Z,61.49
2023-02-02T02:24:58.624Z,61.62
2023-02-02T02:28:21.793Z,61.50
2023-02-02T02:31:46.589Z,61.47
2023-02-02T02:35:25.929Z,61.68
2023-02-02T02:38:38.243Z,61.66
2023-02-02T02:41:46.647Z,61.63
2023-02-02T02:44:49.685Z,61.48
2023-02-02T02:47:52.403Z,61.80
2023-02-02T02:50:53.945Z,61.65
2023-02-02T02:53:56.531Z,61.40
2023-02-02T02:57:35.239Z,61.75
2023-02-02T03:00:47.465Z,61.50
2023-02-02T03:04:35.433Z,61.54
2023-02-02T03:07:47.605Z,61.56
2023-02-02T03:10:49.355Z,61.53
2023-02-02T03:13:51.022Z,61.72
2023-02-02T03:16:53.118Z,61.66
2023-02-02T03:19:54.680Z,61.56
2023-02-02T03:22:56.173Z,61.57
2023-02-02T03:25:57.859Z,61.67
2023-02-02T03:29:00.593Z,61.70
2023-02-02T03:32:02.179Z,61.56
2023-02-02T03:35:04.269Z,61.70
2023-02-02T03:38:05.868Z,61.53
2023-02-02T03:41:07.437Z,61.75
2023-02-02T03:44:08.995Z,61.59
2023-02-02T03:47:10.513Z,61.74
2023-02-02T03:50:12.503Z,61.52
2023-02-02T03:53:14.072Z,61.69
2023-02-02T03:56:16.770Z,61.57
2023-02-02T03:59:18.326Z,61.64
2023-02-02T04:02:19.880Z,61.74
2023-02-02T04:05:21.481Z,61.42
2023-02-02T04:08:23.057Z,61.40
2023-02-02T04:11:24.714Z,61.51
2023-02-02T04:14:26.394Z,61.59
2023-02-02T04:17:28.037Z,61.60
2023-02-02T04:20:29.585Z,61.50
2023-02-02T04:23:31.573Z,61.55
2023-02-02T04:26:33.178Z,61.82
2023-02-02T04:29:34.722Z,61.76
2023-02-02T04:32:36.336Z,61.70
2023-02-02T04:35:38.113Z,61.63
2023-02-02T04:38:39.626Z,61.74
2023-02-02T04:41:41.198Z,61.74
2023-02-02T04:44:44.084Z,61.64
2023-02-02T04:47:45.630Z,61.38
2023-02-02T04:50:47.131Z,61.66
2023-02-02T04:53:48.700Z,61.67
2023-02-02T04:56:50.261Z,61.81
2023-02-02T04:59:51.855Z,61.66
2023-02-02T05:02:53.408Z,61.80
2023-02-02T05:06:04.338Z,61.79
2023-02-02T05:09:05.887Z,61.54
2023-02-02T05:12:07.487Z,61.81
2023-02-02T05:15:09.723Z,61.72
2023-02-02T05:18:11.285Z,61.83
2023-02-02T05:21:12.839Z,61.88
2023-02-02T05:24:14.497Z,61.81
2023-02-02T05:27:16.048Z,61.84
2023-02-02T05:30:17.857Z,61.69
2023-02-02T05:33:19.864Z,61.93
2023-02-02T05:36:21.604Z,61.59
2023-02-02T05:39:23.176Z,61.88
2023-02-02T05:42:24.762Z,61.87
2023-02-02T05:45:26.636Z,62.07
2023-02-02T05:48:28.483Z,61.68
2023-02-02T05:51:33.282Z,61.82
2023-02-02T05:54:34.834Z,61.91
2023-02-02T05:57:36.365Z,61.65
2023-02-02T06:00:38.115Z,61.42
2023-02-02T06:03:39.811Z,61.54
2023-02-02T06:06:42.215Z,62.50
2023-02-02T06:09:43.759Z,62.32
2023-02-02T06:12:45.363Z,61.74
2023-02-02T06:15:46.962Z,61.47
2023-02-02T06:18:48.733Z,61.22
2023-02-02T06:21:50.457Z,61.81
2023-02-02T06:24:53.485Z,61.38
2023-02-02T06:27:57.012Z,61.63
2023-02-02T06:31:04.885Z,61.41
2023-02-02T06:34:06.542Z,61.66
2023-02-02T06:37:08.144Z,61.37
2023-02-02T06:40:10.378Z,61.43
2023-02-02T06:43:15.083Z,61.59
2023-02-02T06:46:17.442Z,61.51
2023-02-02T06:49:19.101Z,61.65
2023-02-02T06:52:20.719Z,61.66
2023-02-02T06:55:22.525Z,61.51
2023-02-02T06:58:24.428Z,61.37
2023-02-02T07:01:26.076Z,61.28
2023-02-02T07:04:27.735Z,61.08
2023-02-02T07:07:33.935Z,61.54
2023-02-02T07:11:14.289Z,61.44
2023-02-02T07:14:00.265Z,61.71
2023-02-02T07:17:01.862Z,61.46
2023-02-02T07:20:03.688Z,61.81
2023-02-02T07:23:05.358Z,61.71
2023-02-02T07:26:08.995Z,61.80
2023-02-02T07:29:14.418Z,61.57
2023-02-02T07:32:15.950Z,61.64
2023-02-02T07:35:17.766Z,61.87
2023-02-02T07:38:19.446Z,61.97
2023-02-02T07:41:21.745Z,61.70
2023-02-02T07:44:23.557Z,61.72
2023-02-02T07:47:25.425Z,61.86
2023-02-02T07:50:29.587Z,61.68
2023-02-02T07:53:31.633Z,61.70
2023-02-02T07:56:33.765Z,61.96
2023-02-02T07:59:35.440Z,61.85
2023-02-02T08:02:37.088Z,61.99
2023-02-02T08:05:39.041Z,61.75
2023-02-02T08:08:40.729Z,62.11
2023-02-02T08:11:42.298Z,61.94
2023-02-02T08:14:43.877Z,62.21
2023-02-02T08:17:46.733Z,62.21
2023-02-02T08:20:49.426Z,61.83
2023-02-02T08:23:52.376Z,61.84
2023-02-02T08:26:53.970Z,61.83
2023-02-02T08:29:55.570Z,61.96
2023-02-02T08:32:57.139Z,61.79
2023-02-02T08:35:58.647Z,61.77
2023-02-02T08:39:12.972Z,61.79
2023-02-02T08:42:14.516Z,62.03
2023-02-02T08:46:01.531Z,61.76
2023-02-02T08:48:38.561Z,62.09
2023-02-02T08:51:40.487Z,62.08
2023-02-02T08:54:42.049Z,61.88
2023-02-02T08:57:43.606Z,61.97
2023-02-02T09:00:45.157Z,61.96
2023-02-02T09:03:47.640Z,61.84
2023-02-02T09:06:49.191Z,61.75
2023-02-02T09:09:52.668Z,62.12
2023-02-02T09:12:54.255Z,62.02
2023-02-02T09:15:59.985Z,61.78
2023-02-02T09:19:01.778Z,61.88
2023-02-02T09:22:03.367Z,61.90
2023-02-02T09:25:06.677Z,61.98
2023-02-02T09:28:08.277Z,61.88
2023-02-02T09:31:10.272Z,61.78
2023-02-02T09:34:14.284Z,62.06
2023-02-02T09:37:15.875Z,61.80
2023-02-02T09:40:21.027Z,61.83
2023-02-02T09:43:53.419Z,61.98
2023-02-02T09:47:04.212Z,62.30
2023-02-02T09:50:29.867Z,62.02
2023-02-02T09:54:06.575Z,61.92
2023-02-02T09:57:19.478Z,61.77
2023-02-02T10:00:33.568Z,62.07
2023-02-02T10:03:41.419Z,61.85
2023-02-02T10:06:49.129Z,61.89
2023-02-02T10:10:04.822Z,61.81
2023-02-02T10:13:13.899Z,61.75
2023-02-02T10:16:22.415Z,61.69
2023-02-02T10:19:29.198Z,61.70
2023-02-02T10:22:34.302Z,61.60
2023-02-02T10:25:35.916Z,61.66
2023-02-02T10:28:43.518Z,61.49
2023-02-02T10:32:23.271Z,61.42
2023-02-02T10:35:38.506Z,61.40
2023-02-02T10:38:57.152Z,61.46
2023-02-02T10:42:28.211Z,61.41
2023-02-02T10:45:29.917Z,61.50
2023-02-02T10:48:36.057Z,61.34
2023-02-02T10:51:38.301Z,61.31
2023-02-02T10:54:58.427Z,61.31
2023-02-02T10:58:12.648Z,61.17
2023-02-02T11:01:18.057Z,61.39
2023-02-02T11:04:41.385Z,61.32
2023-02-02T11:07:43.270Z,61.25
2023-02-02T11:10:47.158Z,61.08
2023-02-02T11:14:11.408Z,61.10
2023-02-02T11:17:33.386Z,61.07
2023-02-02T11:20:38.881Z,61.05
2023-02-02T11:23:41.114Z,61.19
2023-02-02T11:26:54.289Z,61.15
2023-02-02T11:29:59.249Z,61.08
2023-02-02T11:33:33.556Z,61.54
2023-02-02T11:36:35.230Z,61.35
2023-02-02T11:39:36.751Z,61.42
2023-02-02T11:42:46.518Z,61.19
2023-02-02T11:45:54.779Z,61.21
2023-02-02T11:49:02.023Z,61.19
2023-02-02T11:52:07.601Z,61.25
2023-02-02T11:55:17.173Z,61.32
2023-02-02T11:58:25.096Z,61.36
2023-02-02T12:01:35.718Z,61.49
2023-02-02T12:04:37.351Z,61.43
2023-02-02T12:07:40.521Z,61.40
2023-02-02T12:10:49.147Z,61.18
2023-02-02T12:14:28.054Z,61.20
2023-02-02T12:17:38.856Z,61.13
2023-02-02T12:20:57.028Z,61.08
2023-02-02T12:24:38.103Z,60.94
2023-02-02T12:28:03.506Z,60.91
2023-02-02T12:31:05.080Z,61.24
2023-02-02T12:34:35.593Z,61.11
2023-02-02T12:37:50.265Z,61.29
2023-02-02T12:41:12.851Z,61.27
2023-02-02T12:44:54.047Z,61.13
2023-02-02T12:48:23.095Z,61.36
2023-02-02T12:51:41.001Z,61.13
2023-02-02T12:54:57.376Z,61.26
2023-02-02T12:58:24.792Z,61.26
2023-02-02T13:01:52.742Z,61.34
2023-02-02T13:04:57.495Z,61.45
2023-02-02T13:08:14.737Z,61.36
2023-02-02T13:11:32.851Z,61.08
2023-02-02T13:14:43.624Z,61.05
2023-02-02T13:17:55.621Z,61.05
2023-02-02T13:21:03.266Z,61.16
2023-02-02T13:24:07.937Z,60.97
2023-02-02T13:27:14.791Z,61.22
2023-02-02T13:30:38.746Z,60.86
2023-02-02T13:33:44.722Z,60.95
2023-02-02T13:36:53.924Z,61.11
2023-02-02T13:40:06.189Z,61.24
2023-02-02T13:43:45.730Z,61.11
2023-02-02T13:46:56.538Z,61.06
2023-02-02T13:50:07.390Z,61.12
2023-02-02T13:53:19.004Z,61.12
2023-02-02T13:56:54.279Z,61.00
2023-02-02T14:00:14.007Z,61.16
2023-02-02T14:03:32.257Z,61.00
2023-02-02T14:06:56.767Z,61.00
2023-02-02T14:09:58.511Z,60.87
2023-02-02T14:13:32.087Z,60.80
2023-02-02T14:16:33.621Z,60.76
2023-02-02T14:19:35.162Z,60.80
2023-02-02T14:22:42.523Z,60.77
2023-02-02T14:25:44.022Z,60.63
2023-02-02T14:28:51.312Z,60.46
2023-02-02T14:31:54.934Z,60.67
2023-02-02T14:35:08.719Z,60.80
2023-02-02T14:38:44.372Z,60.70
2023-02-02T14:42:31.020Z,60.65
2023-02-02T14:45:39.260Z,60.46
2023-02-02T14:48:44.249Z,60.49
2023-02-02T14:51:53.203Z,60.42
2023-02-02T14:54:55.933Z,60.53
2023-02-02T14:58:01.136Z,60.30
2023-02-02T15:01:08.824Z,60.52
2023-02-02T15:04:22.329Z,60.42
2023-02-02T15:07:23.789Z,60.57
2023-02-02T15:11:22.701Z,60.50
2023-02-02T15:14:31.005Z,60.93
2023-02-02T15:17:49.343Z,60.46
2023-02-02T15:20:56.572Z,60.57
2023-02-02T15:23:58.145Z,60.48
2023-02-02T15:27:00.866Z,60.57
2023-02-02T15:30:07.745Z,60.66
2023-02-02T15:33:47.274Z,60.43
2023-02-02T15:36:53.056Z,60.69
2023-02-02T15:39:58.149Z,60.56
2023-02-02T15:43:04.435Z,60.68
2023-02-02T15:46:11.303Z,60.58
2023-02-02T15:49:33.272Z,60.43
2023-02-02T15:52:47.046Z,60.50
2023-02-02T15:55:48.830Z,60.49
2023-02-02T15:58:52.881Z,60.62
2023-02-02T16:02:06.867Z,61.74
2023-02-02T16:05:36.423Z,61.38
2023-02-02T16:08:40.018Z,61.15
2023-02-02T16:11:42.572Z,60.71
2023-02-02T16:14:55.448Z,60.61
2023-02-02T16:18:00.780Z,60.46
2023-02-02T16:21:09.821Z,60.39
2023-02-02T16:24:17.264Z,60.55
2023-02-02T16:27:23.209Z,60.62
2023-02-02T16:30:30.349Z,60.69
2023-02-02T16:33:43.544Z,60.58
2023-02-02T16:37:04.004Z,60.64
2023-02-02T16:40:23.346Z,60.53
2023-02-02T16:43:29.700Z,60.65
2023-02-02T16:46:49.433Z,60.43
2023-02-02T16:50:07.695Z,60.48
2023-02-02T16:53:22.644Z,60.47
2023-02-02T16:56:36.517Z,60.33
2023-02-02T16:59:38.564Z,60.48
2023-02-02T17:02:45.475Z,60.47
2023-02-02T17:05:47.177Z,60.33
2023-02-02T17:08:48.816Z,60.46
2023-02-02T17:12:03.162Z,60.55
2023-02-02T17:15:17.011Z,60.42
2023-02-02T17:18:18.553Z,60.47
2023-02-02T17:21:23.047Z,60.34
2023-02-02T17:24:24.642Z,60.49
2023-02-02T17:27:28.693Z,60.47
2023-02-02T17:30:30.587Z,60.47
2023-02-02T17:33:34.670Z,60.41
2023-02-02T17:36:36.249Z,60.33
2023-02-02T17:39:38.306Z,60.46
2023-02-02T17:42:40.337Z,60.35
2023-02-02T17:45:42.933Z,60.41
2023-02-02T17:48:44.496Z,60.31
2023-02-02T17:51:46.203Z,60.37
2023-02-02T17:54:47.821Z,60.41
2023-02-02T17:57:50.710Z,60.30
2023-02-02T18:00:55.138Z,60.36
2023-02-02T18:03:56.966Z,60.31
2023-02-02T18:06:58.564Z,60.35
2023-02-02T18:10:00.194Z,60.41
2023-02-02T18:13:01.888Z,60.50
2023-02-02T18:16:06.748Z,60.51
2023-02-02T18:19:08.411Z,60.39
2023-02-02T18:22:10.079Z,60.50
2023-02-02T18:25:11.692Z,60.42
2023-02-02T18:28:18.001Z,60.41
2023-02-02T18:31:23.866Z,60.44
2023-02-02T18:34:29.954Z,60.54
2023-02-02T18:37:31.603Z,60.52
2023-02-02T18:40:33.185Z,60.55
2023-02-02T18:43:34.759Z,60.35
2023-02-02T18:46:36.440Z,61.25
2023-02-02T18:49:37.949Z,60.81
2023-02-02T18:52:39.530Z,60.62
2023-02-02T18:55:41.098Z,60.57
2023-02-02T18:58:42.894Z,60.47
2023-02-02T19:01:44.513Z,60.44
2023-02-02T19:05:05.018Z,60.36
2023-02-02T19:08:06.713Z,60.49
2023-02-02T19:11:17.797Z,60.49
2023-02-02T19:14:26.628Z,60.56
2023-02-02T19:17:29.625Z,60.67
2023-02-02T19:20:31.369Z,60.76
2023-02-02T19:23:37.402Z,60.67
2023-02-02T19:26:44.447Z,60.61
2023-02-02T19:29:47.958Z,60.83
2023-02-02T19:32:49.602Z,60.62
2023-02-02T19:35:53.059Z,60.76
2023-02-02T19:39:17.216Z,60.74
2023-02-02T19:42:18.763Z,60.76
2023-02-02T19:45:33.200Z,60.79
2023-02-02T19:48:35.447Z,60.78
2023-02-02T19:51:44.670Z,60.67
2023-02-02T19:54:48.972Z,60.74
2023-02-02T19:57:52.321Z,60.70
2023-02-02T20:00:57.219Z,60.88
2023-02-02T20:03:58.825Z,60.76
2023-02-02T20:07:00.407Z,60.75
2023-02-02T20:10:20.309Z,60.72
2023-02-02T20:13:25.702Z,60.86
2023-02-02T20:16:42.178Z,60.80
2023-02-02T20:19:46.592Z,60.81
2023-02-02T20:22:48.234Z,60.82
2023-02-02T20:25:49.817Z,60.91
2023-02-02T20:28:53.743Z,60.86
2023-02-02T20:31:58.576Z,60.75
2023-02-02T20:35:00.245Z,60.78
2023-02-02T20:38:01.862Z,60.87
2023-02-02T20:41:05.804Z,61.01
2023-02-02T20:44:07.485Z,60.86
2023-02-02T20:47:09.580Z,60.87
2023-02-02T20:50:14.409Z,60.98
2023-02-02T20:53:16.596Z,61.06
2023-02-02T20:56:18.178Z,60.86
2023-02-02T20:59:20.262Z,60.95
2023-02-02T21:02:22.734Z,60.96
2023-02-02T21:05:24.458Z,60.96
2023-02-02T21:08:26.236Z,61.06
2023-02-02T21:11:27.809Z,60.99
2023-02-02T21:14:29.433Z,60.81
2023-02-02T21:17:31.014Z,61.10
2023-02-02T21:20:32.920Z,61.15
2023-02-02T21:23:34.482Z,61.19
2023-02-02T21:26:36.061Z,61.18
2023-02-02T21:29:38.509Z,61.18
2023-02-02T21:32:40.096Z,61.07
2023-02-02T21:35:41.646Z,61.17
2023-02-02T21:38:43.190Z,61.16
2023-02-02T21:41:44.885Z,61.23
2023-02-02T21:44:56.672Z,61.31
2023-02-02T21:48:00.918Z,61.22
2023-02-02T21:51:23.157Z,61.04
2023-02-02T21:54:35.402Z,61.20
2023-02-02T21:57:37.378Z,61.40
2023-02-02T22:00:38.983Z,61.38
2023-02-02T22:03:46.457Z,61.21
2023-02-02T22:06:59.414Z,61.42
2023-02-02T22:10:00.913Z,61.36
2023-02-02T22:13:15.845Z,61.43
2023-02-02T22:16:20.442Z,61.40
2023-02-02T22:19:29.718Z,61.36
2023-02-02T22:22:35.427Z,61.49
2023-02-02T22:25:37.794Z,61.45
2023-02-02T22:28:39.999Z,61.58
2023-02-02T22:31:41.680Z,61.64
2023-02-02T22:34:43.472Z,61.61
2023-02-02T22:37:45.254Z,61.52
2023-02-02T22:40:48.253Z,61.59
2023-02-02T22:43:49.827Z,61.67
2023-02-02T22:46:51.330Z,61.67
2023-02-02T22:49:53.114Z,61.74
2023-02-02T22:52:55.047Z,61.69
2023-02-02T22:55:56.783Z,61.79
2023-02-02T22:58:58.312Z,61.72
2023-02-02T23:01:59.923Z,61.66
2023-02-02T23:05:01.464Z,61.79
2023-02-02T23:08:03.025Z,61.87
2023-02-02T23:11:04.773Z,61.78
2023-02-02T23:14:06.343Z,61.88
2023-02-02T23:17:08.307Z,61.74
2023-02-02T23:20:13.680Z,61.78
2023-02-02T23:23:15.193Z,61.78
2023-02-02T23:26:16.933Z,61.85
2023-02-02T23:29:18.483Z,61.82
2023-02-02T23:32:20.066Z,61.79
2023-02-02T23:35:21.634Z,61.89
2023-02-02T23:38:23.196Z,62.07
2023-02-02T23:41:24.759Z,61.99
2023-02-02T23:44:26.302Z,62.06
2023-02-02T23:47:28.030Z,62.13
2023-02-02T23:50:29.819Z,62.06
2023-02-02T23:53:31.393Z,62.22
2023-02-02T23:56:33.343Z,62.04
2023-02-02T23:59:34.896Z,62.25
